Time;durP1;ratioP1;P1;durP2;ratioP2;P2;SDS_P1;SDS_P2;PMS_P1;PMS_P2;Temp;Humidity;BMP_temperature;BMP_pressure;BME280_temperature;BME280_humidity;BME280_pressure;Samples;Min_cycle;Max_cycle;Signal;HPM_P1;HPM_P2
2022/07/31 00:00:05;;;;;;;6.67;2.73;;;21.20;92.00;;;;;;6976376;28;20431;-85
2022/07/31 00:03:27;;;;;;;6.05;2.60;;;21.20;91.90;;;;;;6967742;28;20437;-84
2022/07/31 00:06:49;;;;;;;5.95;3.10;;;21.10;92.00;;;;;;6985765;28;20940;-85
2022/07/31 00:10:13;;;;;;;29.38;19.70;;;21.10;92.30;;;;;;6973970;28;20808;-82
2022/07/31 00:13:35;;;;;;;10.93;6.53;;;21.10;92.40;;;;;;6971303;28;20434;-85
2022/07/31 00:16:57;;;;;;;5.50;3.03;;;21.10;92.20;;;;;;6980699;28;20982;-79
2022/07/31 00:20:20;;;;;;;5.97;3.20;;;21.00;92.50;;;;;;6987489;28;20439;-79
2022/07/31 00:23:42;;;;;;;4.88;2.70;;;21.00;92.70;;;;;;6983795;28;20797;-83
2022/07/31 00:27:06;;;;;;;5.80;3.40;;;21.10;92.50;;;;;;6982208;28;20436;-79
2022/07/31 00:30:29;;;;;;;6.50;2.90;;;21.00;92.60;;;;;;6975388;28;20441;-82
2022/07/31 00:33:51;;;;;;;6.07;2.97;;;20.90;92.70;;;;;;6983845;28;20509;-82
2022/07/31 00:37:13;;;;;;;5.38;2.70;;;20.70;93.10;;;;;;6991591;28;20811;-84
2022/07/31 00:40:35;;;;;;;4.90;2.50;;;20.70;93.40;;;;;;6981549;28;20427;-80
2022/07/31 00:43:58;;;;;;;6.15;2.70;;;20.70;93.40;;;;;;6984741;28;20452;-84
2022/07/31 00:47:21;;;;;;;5.38;2.70;;;20.70;93.30;;;;;;6988381;28;20522;-83
2022/07/31 00:50:43;;;;;;;6.20;2.90;;;20.60;93.50;;;;;;6988348;28;20435;-82
2022/07/31 00:54:05;;;;;;;4.97;2.85;;;20.40;93.60;;;;;;6984832;28;20917;-81
2022/07/31 00:57:27;;;;;;;6.10;2.72;;;20.30;93.90;;;;;;6981354;28;20516;-81
2022/07/31 01:00:51;;;;;;;5.50;3.00;;;20.10;94.20;;;;;;6981890;28;20439;-81
2022/07/31 01:04:15;;;;;;;6.57;2.60;;;20.10;94.40;;;;;;6986862;28;20834;-83
2022/07/31 01:07:37;;;;;;;4.80;2.67;;;20.10;94.60;;;;;;6972635;28;20937;-83
2022/07/31 01:11:04;;;;;;;6.37;2.70;;;20.20;94.90;;;;;;6986060;28;20487;-83
2022/07/31 01:14:32;;;;;;;5.23;2.70;;;20.20;94.60;;;;;;6989200;28;20432;-84
2022/07/31 01:17:57;;;;;;;5.78;2.70;;;20.20;94.60;;;;;;6983642;28;20437;-84
2022/07/31 01:21:28;;;;;;;4.47;2.70;;;20.30;94.80;;;;;;6984733;28;20441;-86
2022/07/31 01:25:05;;;;;;;6.07;2.92;;;20.30;94.80;;;;;;6985713;28;20438;-82
2022/07/31 01:28:51;;;;;;;5.57;2.90;;;20.20;94.50;;;;;;6981210;28;20811;-84
2022/07/31 01:32:18;;;;;;;5.32;2.80;;;20.20;94.60;;;;;;6984758;28;20865;-81
2022/07/31 01:35:45;;;;;;;4.40;2.50;;;20.10;94.60;;;;;;6982402;28;20432;-84
2022/07/31 01:39:07;;;;;;;5.20;2.70;;;20.00;94.90;;;;;;6983587;28;20440;-84
2022/07/31 01:42:30;;;;;;;6.77;2.80;;;19.70;95.20;;;;;;7029662;28;20443;-83
2022/07/31 01:45:57;;;;;;;5.23;2.90;;;19.60;95.50;;;;;;7010397;28;20957;-85
2022/07/31 01:49:22;;;;;;;5.38;2.85;;;19.60;95.90;;;;;;6989491;28;20437;-84
2022/07/31 01:52:45;;;;;;;5.43;2.75;;;19.60;96.00;;;;;;7006047;28;20436;-84
2022/07/31 01:56:09;;;;;;;4.37;2.60;;;19.70;95.60;;;;;;6992139;28;20440;-83
2022/07/31 01:59:34;;;;;;;6.60;2.90;;;19.70;95.60;;;;;;6980365;28;20965;-83
2022/07/31 02:02:59;;;;;;;5.57;3.00;;;19.60;95.50;;;;;;6989743;28;20495;-84
2022/07/31 02:06:23;;;;;;;4.90;3.00;;;19.40;95.80;;;;;;7005216;28;20466;-84
2022/07/31 02:09:47;;;;;;;5.17;2.90;;;19.30;96.00;;;;;;7005404;28;20501;-84
2022/07/31 02:13:11;;;;;;;4.65;2.90;;;19.30;96.40;;;;;;6986746;28;20518;-82
2022/07/31 02:16:34;;;;;;;5.40;2.70;;;19.40;96.40;;;;;;6972339;28;20539;-82
2022/07/31 02:20:00;;;;;;;5.80;2.83;;;19.50;96.20;;;;;;6992983;28;20774;-83
2022/07/31 02:23:22;;;;;;;5.85;3.00;;;19.60;96.20;;;;;;6985251;28;20441;-83
2022/07/31 02:26:45;;;;;;;5.75;2.85;;;19.60;96.20;;;;;;6992443;28;20436;-81
2022/07/31 02:30:09;;;;;;;4.50;2.90;;;19.60;96.40;;;;;;6988489;28;20443;-83
2022/07/31 02:33:32;;;;;;;7.30;3.20;;;19.60;96.30;;;;;;6985874;28;20439;-85
2022/07/31 02:36:57;;;;;;;5.47;2.97;;;19.40;96.20;;;;;;6974793;28;20444;-83
2022/07/31 02:40:20;;;;;;;7.13;3.05;;;19.30;96.60;;;;;;6990180;28;20435;-82
2022/07/31 02:43:44;;;;;;;5.78;3.00;;;19.30;97.00;;;;;;6991791;28;20442;-83
2022/07/31 02:47:07;;;;;;;5.97;2.97;;;19.40;96.90;;;;;;6995840;28;20441;-82
2022/07/31 02:50:29;;;;;;;5.70;3.00;;;19.40;96.50;;;;;;7000899;28;20440;-85
2022/07/31 02:53:53;;;;;;;6.10;2.90;;;19.30;96.60;;;;;;7006152;28;20506;-85
2022/07/31 02:57:16;;;;;;;5.63;3.08;;;19.30;96.70;;;;;;6994598;28;20424;-84
2022/07/31 03:00:38;;;;;;;5.65;3.15;;;19.30;96.50;;;;;;6977534;28;20514;-80
2022/07/31 03:04:00;;;;;;;4.50;2.80;;;19.30;96.70;;;;;;6990615;28;20435;-81
2022/07/31 03:07:23;;;;;;;6.20;3.00;;;19.30;96.60;;;;;;6983252;28;20442;-83
2022/07/31 03:10:46;;;;;;;4.57;2.80;;;19.30;96.70;;;;;;6990227;28;20432;-82
2022/07/31 03:14:12;;;;;;;4.60;3.00;;;19.20;96.60;;;;;;6983516;28;20509;-83
2022/07/31 03:17:34;;;;;;;4.95;2.90;;;19.10;96.70;;;;;;6985661;28;20924;-82
2022/07/31 03:20:57;;;;;;;7.03;2.92;;;19.10;96.90;;;;;;6986308;28;20779;-83
2022/07/31 03:24:20;;;;;;;4.53;2.70;;;19.10;97.00;;;;;;6975204;28;20440;-83
2022/07/31 03:27:44;;;;;;;5.80;2.90;;;19.10;96.70;;;;;;6985630;28;20467;-82
2022/07/31 03:31:06;;;;;;;4.57;2.90;;;18.90;97.00;;;;;;6989283;28;20502;-78
2022/07/31 03:34:28;;;;;;;5.50;2.90;;;18.80;97.50;;;;;;6989574;28;20512;-77
2022/07/31 03:37:50;;;;;;;7.82;3.00;;;18.80;97.40;;;;;;6984072;28;20903;-79
2022/07/31 03:41:14;;;;;;;5.88;3.10;;;18.70;97.20;;;;;;6979380;28;20435;-79
2022/07/31 03:44:40;;;;;;;5.65;2.85;;;18.70;97.40;;;;;;6986457;28;20448;-81
2022/07/31 03:48:02;;;;;;;6.10;2.75;;;18.70;97.40;;;;;;6983329;28;20439;-81
2022/07/31 03:51:24;;;;;;;5.25;2.70;;;18.50;97.50;;;;;;6987729;28;20445;-81
2022/07/31 03:54:47;;;;;;;4.73;2.70;;;18.50;97.70;;;;;;6988387;28;20435;-80
2022/07/31 03:58:10;;;;;;;5.03;2.90;;;18.50;97.60;;;;;;6981263;28;20431;-81
2022/07/31 04:01:34;;;;;;;5.38;2.70;;;18.50;97.80;;;;;;6990251;28;20441;-79
2022/07/31 04:04:57;;;;;;;5.85;2.53;;;18.50;97.90;;;;;;6982303;28;21227;-81
2022/07/31 04:08:19;;;;;;;5.80;2.65;;;18.60;97.50;;;;;;6977130;28;20496;-78
2022/07/31 04:11:41;;;;;;;5.07;2.70;;;18.70;97.70;;;;;;6989728;28;20435;-81
2022/07/31 04:15:04;;;;;;;5.63;2.70;;;18.70;97.40;;;;;;6988655;28;20446;-80
2022/07/31 04:18:27;;;;;;;5.22;2.60;;;18.80;97.50;;;;;;6978084;28;20441;-79
2022/07/31 04:21:50;;;;;;;3.90;2.40;;;18.80;97.40;;;;;;6977620;28;20480;-80
2022/07/31 04:25:12;;;;;;;4.30;2.70;;;18.80;97.30;;;;;;6981769;28;20523;-80
2022/07/31 04:28:34;;;;;;;6.07;2.40;;;18.80;97.10;;;;;;6970165;28;20431;-81
2022/07/31 04:31:56;;;;;;;5.95;2.60;;;18.80;96.50;;;;;;6989162;28;20913;-79
2022/07/31 04:35:20;;;;;;;5.00;2.60;;;18.90;96.60;;;;;;6986731;28;20904;-80
2022/07/31 04:38:43;;;;;;;4.00;2.25;;;18.90;96.50;;;;;;6981171;28;20583;-79
2022/07/31 04:42:06;;;;;;;6.03;2.70;;;18.90;96.80;;;;;;6985029;28;20951;-79
2022/07/31 04:45:28;;;;;;;5.18;2.60;;;19.00;96.70;;;;;;6985684;28;20445;-79
2022/07/31 04:48:50;;;;;;;5.30;2.33;;;19.00;96.70;;;;;;6979802;28;20435;-82
2022/07/31 04:52:13;;;;;;;5.55;2.70;;;19.10;96.90;;;;;;6986108;28;20460;-79
2022/07/31 04:55:35;;;;;;;4.85;2.42;;;19.20;96.80;;;;;;6975186;28;20427;-78
2022/07/31 04:58:58;;;;;;;3.90;2.20;;;19.20;96.00;;;;;;6981686;28;20433;-79
2022/07/31 05:02:20;;;;;;;3.90;2.40;;;19.10;95.20;;;;;;6986380;28;20474;-80
2022/07/31 05:05:44;;;;;;;4.68;2.40;;;19.10;95.30;;;;;;6988057;28;20440;-81
2022/07/31 05:09:11;;;;;;;4.18;2.40;;;19.10;95.40;;;;;;6977927;28;20420;-80
2022/07/31 05:12:33;;;;;;;4.37;2.20;;;19.20;96.10;;;;;;6981962;28;20446;-79
2022/07/31 05:15:56;;;;;;;4.40;2.40;;;19.20;95.70;;;;;;6988762;28;20431;-79
2022/07/31 05:19:18;;;;;;;5.37;2.40;;;19.30;95.60;;;;;;6978473;28;20473;-80
2022/07/31 05:22:40;;;;;;;4.00;2.28;;;19.20;94.90;;;;;;6976912;28;20900;-81
2022/07/31 05:26:04;;;;;;;4.45;2.28;;;19.20;95.00;;;;;;6988373;28;20470;-79
2022/07/31 05:29:26;;;;;;;5.28;2.42;;;19.30;94.90;;;;;;6984896;28;20446;-78
2022/07/31 05:32:48;;;;;;;5.27;2.43;;;19.40;95.80;;;;;;6981621;28;20785;-75
2022/07/31 05:36:10;;;;;;;4.30;2.25;;;19.50;95.60;;;;;;6980520;28;20429;-76
2022/07/31 05:39:32;;;;;;;4.65;2.20;;;19.60;95.00;;;;;;6986852;28;20440;-79
2022/07/31 05:42:56;;;;;;;5.32;2.40;;;19.70;94.60;;;;;;6970386;28;20433;-78
2022/07/31 05:46:18;;;;;;;4.75;2.25;;;19.80;95.00;;;;;;6977240;28;20872;-78
2022/07/31 05:49:40;;;;;;;4.55;2.30;;;19.80;95.00;;;;;;6979711;28;20946;-78
2022/07/31 05:53:02;;;;;;;4.68;2.30;;;19.80;94.40;;;;;;6986587;28;20435;-78
2022/07/31 05:56:26;;;;;;;4.13;2.40;;;19.80;94.70;;;;;;6972728;28;20437;-78
2022/07/31 05:59:50;;;;;;;6.57;2.30;;;19.70;94.30;;;;;;6980902;28;20472;-77
2022/07/31 06:03:12;;;;;;;4.45;2.40;;;19.60;94.30;;;;;;6978050;28;20817;-80
2022/07/31 06:06:34;;;;;;;4.50;2.30;;;19.70;94.50;;;;;;6983334;28;20442;-80
2022/07/31 06:09:56;;;;;;;5.15;2.40;;;19.60;94.90;;;;;;6988732;28;20435;-77
2022/07/31 06:13:19;;;;;;;4.72;2.45;;;19.60;94.50;;;;;;6978521;28;20428;-79
2022/07/31 06:16:42;;;;;;;4.97;2.30;;;19.70;94.70;;;;;;6987457;28;20431;-77
2022/07/31 06:20:05;;;;;;;4.53;2.13;;;19.80;94.90;;;;;;6985552;28;20433;-78
2022/07/31 06:23:27;;;;;;;4.00;2.13;;;19.80;94.50;;;;;;6992379;28;20433;-76
2022/07/31 06:26:49;;;;;;;4.88;2.22;;;19.90;94.80;;;;;;6986921;28;20429;-77
2022/07/31 06:30:13;;;;;;;4.65;2.20;;;20.00;93.70;;;;;;6979701;28;20489;-78
2022/07/31 06:33:37;;;;;;;5.40;2.20;;;20.00;93.90;;;;;;6979900;28;20435;-78
2022/07/31 06:36:59;;;;;;;4.23;2.17;;;20.00;93.80;;;;;;6986254;28;20439;-77
2022/07/31 06:40:23;;;;;;;3.90;2.28;;;20.10;94.20;;;;;;6988189;28;20714;-78
2022/07/31 06:43:45;;;;;;;4.18;2.08;;;20.20;93.90;;;;;;6972455;28;20431;-79
2022/07/31 06:47:07;;;;;;;4.30;2.30;;;20.20;94.10;;;;;;6978221;28;20429;-79
2022/07/31 06:50:30;;;;;;;4.93;2.35;;;20.30;94.20;;;;;;6984397;28;20429;-78
2022/07/31 06:53:52;;;;;;;4.57;2.20;;;20.40;94.30;;;;;;6992727;28;20442;-78
2022/07/31 06:57:15;;;;;;;5.00;2.17;;;20.50;94.20;;;;;;6992731;28;20440;-78
2022/07/31 07:00:37;;;;;;;5.32;2.50;;;20.60;94.20;;;;;;6981825;28;20433;-78
2022/07/31 07:04:00;;;;;;;4.18;2.30;;;20.70;93.90;;;;;;6992253;28;20438;-78
2022/07/31 07:07:23;;;;;;;5.10;2.10;;;20.80;93.90;;;;;;6974098;28;20433;-79
2022/07/31 07:10:45;;;;;;;4.40;2.25;;;20.90;93.80;;;;;;6991419;28;20431;-81
2022/07/31 07:14:08;;;;;;;4.85;2.20;;;21.00;93.70;;;;;;6990890;28;20466;-80
2022/07/31 07:17:30;;;;;;;4.68;2.15;;;21.10;93.40;;;;;;6981423;28;20438;-81
2022/07/31 07:20:52;;;;;;;4.50;2.25;;;21.10;93.00;;;;;;6999129;28;20531;-81
2022/07/31 07:24:16;;;;;;;4.05;2.03;;;21.20;93.30;;;;;;6993387;28;20440;-82
2022/07/31 07:27:38;;;;;;;4.22;2.00;;;21.20;93.00;;;;;;6979208;28;20556;-80
2022/07/31 07:31:00;;;;;;;3.83;2.00;;;21.10;92.70;;;;;;6991756;28;20435;-78
2022/07/31 07:34:22;;;;;;;4.25;2.10;;;21.10;92.30;;;;;;6990290;28;20444;-80
2022/07/31 07:37:44;;;;;;;4.17;2.00;;;21.20;92.60;;;;;;6975862;28;20530;-80
2022/07/31 07:41:08;;;;;;;5.35;2.30;;;21.30;92.30;;;;;;6970731;28;20791;-79
2022/07/31 07:44:30;;;;;;;5.57;2.15;;;21.30;92.40;;;;;;6977209;28;20429;-80
2022/07/31 07:47:52;;;;;;;3.83;1.90;;;21.30;92.40;;;;;;6992296;28;20438;-79
2022/07/31 07:51:14;;;;;;;4.10;2.00;;;21.30;93.00;;;;;;6984890;28;20771;-80
2022/07/31 07:54:36;;;;;;;5.75;2.30;;;21.50;92.50;;;;;;6987177;28;20433;-78
2022/07/31 07:58:00;;;;;;;4.25;2.05;;;21.50;92.30;;;;;;6984403;28;20767;-78
2022/07/31 08:01:22;;;;;;;4.60;1.80;;;21.60;92.00;;;;;;6983650;28;20448;-78
2022/07/31 08:04:44;;;;;;;3.53;1.92;;;21.70;90.80;;;;;;6989933;28;20439;-79
2022/07/31 08:08:07;;;;;;;5.43;2.00;;;21.80;90.70;;;;;;6986330;28;20488;-80
2022/07/31 08:11:29;;;;;;;4.13;1.70;;;22.00;90.70;;;;;;6981117;28;20489;-83
2022/07/31 08:14:53;;;;;;;4.50;1.80;;;22.10;90.50;;;;;;6986483;28;20973;-82
2022/07/31 08:18:16;;;;;;;4.28;1.90;;;22.30;87.60;;;;;;6981817;28;20462;-82
2022/07/31 08:21:38;;;;;;;4.63;2.25;;;22.40;87.00;;;;;;6989401;28;20805;-82
2022/07/31 08:25:00;;;;;;;5.65;2.10;;;22.50;88.10;;;;;;6983649;28;20442;-82
2022/07/31 08:28:25;;;;;;;3.65;1.80;;;22.50;86.00;;;;;;6974942;28;20437;-81
2022/07/31 08:31:49;;;;;;;4.65;1.80;;;22.60;85.30;;;;;;6982943;28;20522;-82
2022/07/31 08:35:11;;;;;;;4.20;1.90;;;22.70;88.70;;;;;;6977200;28;20442;-80
2022/07/31 08:38:33;;;;;;;4.30;1.90;;;22.80;86.50;;;;;;6978866;28;20433;-83
2022/07/31 08:41:55;;;;;;;4.22;1.90;;;22.90;86.30;;;;;;6985503;28;20435;-82
2022/07/31 08:45:17;;;;;;;3.80;1.88;;;23.00;85.40;;;;;;6970813;28;20436;-82
2022/07/31 08:48:43;;;;;;;5.10;1.90;;;23.00;86.10;;;;;;6968684;28;20442;-81
2022/07/31 08:52:08;;;;;;;4.15;1.90;;;23.00;85.60;;;;;;6975299;28;20443;-83
2022/07/31 08:55:32;;;;;;;3.73;1.90;;;23.10;86.20;;;;;;6980352;28;20504;-79
2022/07/31 08:58:56;;;;;;;5.30;1.90;;;23.10;85.30;;;;;;6981901;28;20865;-80
2022/07/31 09:02:19;;;;;;;4.50;2.10;;;23.10;86.40;;;;;;6987476;28;20444;-78
2022/07/31 09:05:42;;;;;;;4.57;2.00;;;23.20;87.10;;;;;;6981110;28;20463;-87
2022/07/31 09:09:05;;;;;;;4.40;1.90;;;23.40;87.00;;;;;;6984153;28;20440;-89
2022/07/31 09:12:30;;;;;;;4.30;1.98;;;23.40;85.40;;;;;;6974743;28;20787;-86
2022/07/31 09:15:57;;;;;;;4.78;1.88;;;23.40;84.30;;;;;;6976160;28;20937;-89
2022/07/31 09:19:21;;;;;;;4.45;1.90;;;23.50;84.40;;;;;;6971599;28;20445;-88
2022/07/31 09:22:45;;;;;;;3.88;1.90;;;23.50;84.30;;;;;;6969260;28;20478;-88
2022/07/31 09:26:07;;;;;;;3.63;1.80;;;23.50;82.70;;;;;;6986395;28;20436;-82
2022/07/31 09:29:37;;;;;;;4.30;1.98;;;23.60;82.90;;;;;;6988324;28;20953;-81
2022/07/31 09:33:14;;;;;;;4.15;1.88;;;23.60;80.90;;;;;;6986793;28;20437;-80
2022/07/31 09:36:36;;;;;;;3.55;1.70;;;23.70;80.10;;;;;;6966711;28;20918;-77
2022/07/31 09:40:00;;;;;;;4.38;1.80;;;23.90;82.10;;;;;;6963362;28;20454;-78
2022/07/31 09:43:24;;;;;;;4.50;1.90;;;24.00;79.30;;;;;;6971221;28;20448;-77
2022/07/31 09:46:49;;;;;;;7.18;5.60;;;24.10;75.30;;;;;;6984983;28;20512;-74
2022/07/31 09:50:11;;;;;;;6.57;3.70;;;24.20;75.80;;;;;;6986959;28;20432;-78
2022/07/31 09:53:41;;;;;;;9.35;2.80;;;24.30;75.60;;;;;;6972714;28;20442;-77
2022/07/31 09:57:14;;;;;;;4.60;2.15;;;24.40;79.30;;;;;;6973363;28;20456;-77
2022/07/31 10:00:37;;;;;;;5.32;1.90;;;24.40;73.90;;;;;;6982546;28;20424;-78
2022/07/31 10:04:02;;;;;;;4.10;1.67;;;24.50;71.30;;;;;;6975754;28;20853;-76
2022/07/31 10:07:26;;;;;;;3.95;1.60;;;24.60;71.00;;;;;;6969214;28;20440;-77
2022/07/31 10:10:49;;;;;;;4.88;1.80;;;24.60;70.10;;;;;;6983464;28;20458;-75
2022/07/31 10:14:19;;;;;;;3.92;1.60;;;24.80;72.70;;;;;;6986560;28;20459;-76
2022/07/31 10:17:45;;;;;;;4.28;1.75;;;24.80;70.30;;;;;;6973267;28;20803;-76
2022/07/31 10:21:08;;;;;;;3.37;1.60;;;24.90;71.60;;;;;;7004047;28;20427;-77
2022/07/31 10:24:33;;;;;;;4.00;1.58;;;25.00;69.20;;;;;;6993406;28;20837;-76
2022/07/31 10:27:56;;;;;;;3.92;1.60;;;25.20;68.50;;;;;;7002995;28;20429;-74
2022/07/31 10:31:20;;;;;;;4.60;1.67;;;25.20;67.10;;;;;;7004442;28;20443;-75
2022/07/31 10:34:42;;;;;;;3.83;1.58;;;25.30;65.50;;;;;;6999310;28;20476;-74
2022/07/31 10:38:15;;;;;;;4.57;1.60;;;25.40;66.50;;;;;;6990488;28;20463;-75
2022/07/31 10:41:49;;;;;;;4.53;1.60;;;25.40;67.30;;;;;;7014266;28;20443;-79
2022/07/31 10:45:14;;;;;;;3.35;1.60;;;25.50;67.60;;;;;;6999512;28;20439;-76
2022/07/31 10:48:37;;;;;;;3.43;1.50;;;25.60;68.20;;;;;;6998384;28;20439;-76
2022/07/31 10:52:00;;;;;;;4.97;2.53;;;25.70;68.00;;;;;;7007975;28;20423;-77
2022/07/31 10:55:25;;;;;;;3.42;1.55;;;25.90;67.50;;;;;;6994933;28;20437;-80
2022/07/31 10:58:49;;;;;;;4.00;1.80;;;26.00;66.90;;;;;;6983413;28;20428;-79
2022/07/31 11:02:11;;;;;;;3.90;1.55;;;26.10;67.40;;;;;;6966877;28;20480;-78
2022/07/31 11:05:34;;;;;;;3.67;1.50;;;26.10;65.60;;;;;;6969966;28;20485;-74
2022/07/31 11:08:56;;;;;;;10.10;6.60;;;26.20;66.30;;;;;;6974968;28;20454;-75
2022/07/31 11:12:19;;;;;;;4.43;1.88;;;26.30;66.00;;;;;;6972332;28;20501;-76
2022/07/31 11:15:42;;;;;;;3.97;2.33;;;26.20;65.80;;;;;;6994876;28;20550;-76
2022/07/31 11:19:07;;;;;;;4.10;1.50;;;26.40;66.10;;;;;;6997352;28;20486;-77
2022/07/31 11:22:30;;;;;;;4.00;1.70;;;26.50;65.80;;;;;;6979014;28;20490;-73
2022/07/31 11:25:52;;;;;;;4.68;1.70;;;26.60;66.20;;;;;;6988754;28;20474;-73
2022/07/31 11:29:26;;;;;;;3.88;1.60;;;26.60;64.40;;;;;;6972861;28;20492;-73
2022/07/31 11:32:50;;;;;;;4.00;1.67;;;26.50;65.70;;;;;;6985337;28;20462;-74
2022/07/31 11:36:15;;;;;;;4.22;1.60;;;26.60;65.10;;;;;;6985099;28;20866;-73
2022/07/31 11:39:40;;;;;;;4.20;1.60;;;26.70;63.70;;;;;;6980015;28;20513;-72
2022/07/31 11:43:07;;;;;;;4.13;1.60;;;26.70;64.40;;;;;;6966775;28;20948;-75
2022/07/31 11:46:32;;;;;;;3.60;1.65;;;26.90;65.30;;;;;;6984084;28;20445;-73
2022/07/31 11:50:02;;;;;;;3.15;1.52;;;26.90;64.50;;;;;;6976237;28;20436;-74
2022/07/31 11:53:24;;;;;;;4.43;1.80;;;27.00;63.90;;;;;;6983331;28;20441;-73
2022/07/31 11:56:48;;;;;;;4.18;1.70;;;27.10;63.50;;;;;;6978090;28;20583;-75
2022/07/31 12:00:13;;;;;;;5.72;1.70;;;27.10;63.30;;;;;;6984352;28;20435;-75
2022/07/31 12:03:38;;;;;;;5.23;1.60;;;27.10;62.00;;;;;;6968417;28;20820;-74
2022/07/31 12:07:00;;;;;;;4.17;1.57;;;27.10;61.50;;;;;;6977135;28;20452;-74
2022/07/31 12:10:23;;;;;;;3.38;1.70;;;27.20;62.30;;;;;;6982167;28;20483;-75
2022/07/31 12:13:48;;;;;;;3.40;1.60;;;27.40;61.80;;;;;;6977965;28;20466;-74
2022/07/31 12:17:20;;;;;;;3.30;1.58;;;27.50;62.00;;;;;;6976858;28;20459;-80
2022/07/31 12:20:53;;;;;;;4.40;1.52;;;27.50;61.60;;;;;;6988372;28;20454;-78
2022/07/31 12:24:15;;;;;;;3.38;1.60;;;27.20;61.50;;;;;;6988892;28;20443;-77
2022/07/31 12:27:37;;;;;;;3.78;1.90;;;27.10;61.80;;;;;;6982514;28;20474;-79
2022/07/31 12:31:00;;;;;;;4.47;1.77;;;27.30;61.70;;;;;;6984316;28;20477;-77
2022/07/31 12:34:28;;;;;;;4.40;1.52;;;27.50;60.90;;;;;;6982257;28;20449;-76
2022/07/31 12:37:52;;;;;;;3.63;1.55;;;27.50;61.70;;;;;;6972096;28;20438;-78
2022/07/31 12:41:15;;;;;;;4.32;1.70;;;27.50;60.60;;;;;;6976716;28;20440;-75
2022/07/31 12:44:48;;;;;;;4.07;1.60;;;27.60;60.70;;;;;;6978541;28;20435;-78
2022/07/31 12:48:11;;;;;;;3.33;1.50;;;27.70;59.50;;;;;;6978738;28;21119;-80
2022/07/31 12:51:34;;;;;;;4.70;1.80;;;27.90;59.60;;;;;;6978698;28;20462;-78
2022/07/31 12:54:59;;;;;;;4.38;1.63;;;28.10;60.50;;;;;;6984582;28;20434;-76
2022/07/31 12:58:21;;;;;;;4.45;1.60;;;28.20;60.30;;;;;;6973616;28;20444;-79
2022/07/31 13:01:43;;;;;;;3.93;1.67;;;28.20;58.60;;;;;;6973945;28;20551;-75
2022/07/31 13:05:08;;;;;;;5.28;1.50;;;28.00;58.10;;;;;;6972589;28;20436;-77
2022/07/31 13:08:30;;;;;;;3.40;1.52;;;28.20;57.70;;;;;;6963823;28;20445;-76
2022/07/31 13:11:53;;;;;;;3.95;1.60;;;28.20;58.80;;;;;;6961968;28;20441;-75
2022/07/31 13:15:16;;;;;;;4.07;1.60;;;28.30;59.20;;;;;;6969110;28;20444;-77
2022/07/31 13:18:38;;;;;;;3.05;1.50;;;28.50;59.10;;;;;;6982227;28;20944;-77
2022/07/31 13:22:02;;;;;;;3.65;1.65;;;28.30;57.90;;;;;;6983487;28;20477;-79
2022/07/31 13:25:24;;;;;;;3.33;1.65;;;28.60;58.30;;;;;;6963642;28;20433;-76
2022/07/31 13:28:46;;;;;;;4.13;1.60;;;28.50;57.20;;;;;;6982537;28;20544;-75
2022/07/31 13:32:08;;;;;;;3.47;1.67;;;28.70;57.80;;;;;;6971845;28;20973;-76
2022/07/31 13:35:31;;;;;;;3.45;1.63;;;28.90;58.40;;;;;;6998348;28;20484;-76
2022/07/31 13:38:55;;;;;;;4.32;1.65;;;29.10;59.70;;;;;;6997112;28;20477;-76
2022/07/31 13:42:17;;;;;;;4.25;1.60;;;28.90;55.70;;;;;;6974080;28;20437;-77
2022/07/31 13:45:39;;;;;;;5.28;1.80;;;29.10;55.80;;;;;;6977373;28;20766;-77
2022/07/31 13:49:06;;;;;;;3.73;1.50;;;29.00;56.40;;;;;;6987751;28;20430;-77
2022/07/31 13:52:28;;;;;;;3.95;1.52;;;28.90;56.70;;;;;;6990669;28;20438;-76
2022/07/31 13:55:53;;;;;;;4.00;1.60;;;29.10;56.70;;;;;;6979909;28;20464;-76
2022/07/31 13:59:16;;;;;;;3.05;1.35;;;29.10;55.30;;;;;;6978442;28;20431;-76
2022/07/31 14:02:38;;;;;;;3.65;1.55;;;29.30;55.30;;;;;;6990677;28;20913;-78
2022/07/31 14:06:00;;;;;;;3.37;1.73;;;29.60;56.40;;;;;;6993701;28;20450;-75
2022/07/31 14:09:22;;;;;;;4.27;1.57;;;29.50;57.60;;;;;;6983971;28;20485;-74
2022/07/31 14:12:46;;;;;;;4.30;1.50;;;29.60;55.90;;;;;;6976850;28;20436;-75
2022/07/31 14:16:08;;;;;;;5.35;1.70;;;29.40;56.00;;;;;;6985347;28;20435;-77
2022/07/31 14:19:30;;;;;;;3.33;1.30;;;29.30;55.20;;;;;;6986138;28;20470;-78
2022/07/31 14:22:52;;;;;;;7.32;3.88;;;29.50;55.30;;;;;;6976407;28;20440;-78
2022/07/31 14:26:14;;;;;;;5.55;2.45;;;29.40;53.50;;;;;;6975880;28;20543;-77
2022/07/31 14:29:37;;;;;;;6.10;3.17;;;29.20;53.50;;;;;;6982892;28;20437;-75
2022/07/31 14:33:00;;;;;;;3.40;1.60;;;29.20;53.40;;;;;;6979048;28;20440;-78
2022/07/31 14:36:22;;;;;;;4.32;1.60;;;29.50;53.60;;;;;;6990882;28;20441;-77
2022/07/31 14:39:44;;;;;;;3.55;1.40;;;29.70;53.40;;;;;;6981351;28;20438;-76
2022/07/31 14:43:08;;;;;;;4.95;1.55;;;29.70;53.60;;;;;;6983549;28;20467;-75
2022/07/31 14:46:32;;;;;;;3.08;1.50;;;29.90;52.80;;;;;;6985513;28;20433;-76
2022/07/31 14:49:54;;;;;;;3.45;1.50;;;30.00;52.80;;;;;;6984210;28;20446;-75
2022/07/31 14:53:16;;;;;;;4.10;1.60;;;30.10;52.30;;;;;;6985236;28;20427;-76
2022/07/31 14:56:38;;;;;;;4.18;1.60;;;30.20;51.80;;;;;;6970915;28;20436;-78
2022/07/31 15:00:00;;;;;;;3.95;1.70;;;30.30;51.80;;;;;;6985028;28;20948;-76
2022/07/31 15:03:23;;;;;;;4.03;1.60;;;30.30;51.80;;;;;;6985334;28;20477;-78
2022/07/31 15:06:46;;;;;;;5.20;1.87;;;30.40;53.10;;;;;;6987842;28;20455;-77
2022/07/31 15:10:10;;;;;;;4.27;1.73;;;30.50;50.80;;;;;;6980402;28;20435;-78
2022/07/31 15:13:32;;;;;;;3.42;1.70;;;30.70;50.90;;;;;;6985040;28;20491;-78
2022/07/31 15:16:54;;;;;;;3.40;1.60;;;30.90;50.10;;;;;;6983979;28;20894;-77
2022/07/31 15:20:18;;;;;;;4.00;1.50;;;30.50;50.50;;;;;;6981144;28;20437;-78
2022/07/31 15:23:40;;;;;;;3.70;1.60;;;30.30;50.10;;;;;;6979045;28;20462;-77
2022/07/31 15:27:02;;;;;;;4.65;1.80;;;30.40;50.40;;;;;;6984915;28;20474;-78
2022/07/31 15:30:24;;;;;;;4.20;1.70;;;30.60;50.90;;;;;;6981207;28;20477;-80
2022/07/31 15:33:46;;;;;;;4.78;1.70;;;31.00;50.40;;;;;;6984550;28;20432;-78
2022/07/31 15:37:09;;;;;;;3.42;1.48;;;30.80;51.30;;;;;;6979178;28;20474;-79
2022/07/31 15:40:31;;;;;;;3.40;1.50;;;30.40;50.00;;;;;;6987812;28;20484;-79
2022/07/31 15:43:54;;;;;;;4.27;1.70;;;30.60;51.70;;;;;;6984542;28;20463;-79
2022/07/31 15:47:16;;;;;;;4.38;1.50;;;30.90;50.40;;;;;;6972276;28;20445;-76
2022/07/31 15:50:38;;;;;;;3.05;1.55;;;31.00;51.20;;;;;;6979515;28;20432;-76
2022/07/31 15:54:01;;;;;;;3.40;1.60;;;31.10;51.50;;;;;;6985593;28;20439;-76
2022/07/31 15:57:25;;;;;;;3.80;1.50;;;30.90;50.20;;;;;;6978915;28;20437;-77
2022/07/31 16:00:47;;;;;;;3.72;1.50;;;30.70;50.80;;;;;;6976891;28;20475;-78
2022/07/31 16:04:09;;;;;;;4.07;1.60;;;30.90;51.00;;;;;;6983615;28;20940;-78
2022/07/31 16:07:31;;;;;;;4.05;1.50;;;31.30;50.60;;;;;;6986803;28;20492;-78
2022/07/31 16:10:54;;;;;;;6.32;1.50;;;31.20;50.80;;;;;;6981518;28;20505;-77
2022/07/31 16:14:16;;;;;;;3.90;1.70;;;31.30;49.80;;;;;;6986865;28;20454;-77
2022/07/31 16:17:38;;;;;;;4.18;1.70;;;31.60;50.20;;;;;;6984560;28;20431;-76
2022/07/31 16:21:00;;;;;;;5.10;1.58;;;31.30;50.00;;;;;;6988312;28;20520;-78
2022/07/31 16:24:23;;;;;;;4.78;2.20;;;31.10;51.30;;;;;;6973440;28;20442;-80
2022/07/31 16:27:47;;;;;;;4.20;1.55;;;30.80;52.80;;;;;;6968765;28;20467;-82
2022/07/31 16:31:09;;;;;;;3.38;1.50;;;30.80;52.30;;;;;;6994291;28;20431;-82
2022/07/31 16:34:31;;;;;;;4.78;1.60;;;30.70;52.80;;;;;;6994722;28;20478;-82
2022/07/31 16:37:53;;;;;;;4.10;1.40;;;30.70;53.90;;;;;;6993448;28;20438;-80
2022/07/31 16:41:16;;;;;;;3.60;1.40;;;30.50;53.60;;;;;;6974066;28;20432;-83
2022/07/31 16:44:40;;;;;;;3.95;1.40;;;30.50;52.00;;;;;;6990607;28;20441;-81
2022/07/31 16:48:02;;;;;;;3.90;1.50;;;30.40;52.40;;;;;;6973710;28;20835;-81
2022/07/31 16:51:26;;;;;;;3.60;1.60;;;30.40;53.10;;;;;;6985318;28;20467;-80
2022/07/31 16:54:48;;;;;;;3.35;1.70;;;30.40;53.30;;;;;;6971498;28;20471;-79
2022/07/31 16:58:10;;;;;;;5.22;1.73;;;30.30;54.20;;;;;;6963300;28;20440;-79
2022/07/31 17:01:34;;;;;;;4.40;2.08;;;30.20;55.20;;;;;;6972220;28;20434;-79
2022/07/31 17:04:56;;;;;;;3.83;1.77;;;30.20;56.70;;;;;;6984723;28;20480;-78
2022/07/31 17:08:18;;;;;;;5.00;2.50;;;30.30;58.00;;;;;;6982828;28;20474;-80
2022/07/31 17:11:40;;;;;;;5.95;3.70;;;30.30;57.40;;;;;;6986774;28;20494;-81
2022/07/31 17:15:03;;;;;;;5.00;2.40;;;30.30;57.80;;;;;;6973511;28;20432;-79
2022/07/31 17:18:26;;;;;;;5.33;1.90;;;30.30;56.70;;;;;;6983056;28;20444;-81
2022/07/31 17:21:48;;;;;;;4.07;2.00;;;30.10;58.30;;;;;;6963720;28;20437;-78
2022/07/31 17:25:11;;;;;;;5.13;2.33;;;30.10;56.70;;;;;;6962040;28;20768;-78
2022/07/31 17:28:33;;;;;;;4.10;2.08;;;29.90;57.60;;;;;;6963917;28;20482;-78
2022/07/31 17:31:55;;;;;;;4.53;1.90;;;29.70;57.00;;;;;;6964349;28;20472;-80
2022/07/31 17:35:19;;;;;;;5.22;1.88;;;29.70;56.80;;;;;;6966741;28;20459;-77